Time;durP1;ratioP1;P1;durP2;ratioP2;P2;SDS_P1;SDS_P2;PMS_P1;PMS_P2;Temp;Humidity;BMP_temperature;BMP_pressure;BME280_temperature;BME280_humidity;BME280_pressure;Samples;Min_cycle;Max_cycle;Signal;HPM_P1;HPM_P2
2022/02/23 00:00:43;;;;;;;47.67;4.72;;;6.10;99.90;;;;;;6161946;23;20017;-85
2022/02/23 00:03:09;;;;;;;31.50;4.07;;;6.60;99.90;;;;;;6168535;23;20030;-86
2022/02/23 00:05:35;;;;;;;43.47;5.88;;;5.60;99.90;;;;;;6185854;23;20060;-85
2022/02/23 00:08:01;;;;;;;38.28;3.85;;;5.70;99.90;;;;;;6186166;23;20031;-85
2022/02/23 00:10:26;;;;;;;35.70;5.13;;;5.60;99.90;;;;;;6160376;23;20016;-85
2022/02/23 00:12:52;;;;;;;32.83;4.93;;;5.50;99.90;;;;;;6184882;23;20103;-85
2022/02/23 00:15:18;;;;;;;37.10;4.75;;;5.60;99.90;;;;;;6160953;23;20095;-85
2022/02/23 00:17:44;;;;;;;32.30;4.60;;;6.40;99.90;;;;;;6186982;23;20071;-85
2022/02/23 00:20:11;;;;;;;35.35;5.18;;;5.90;99.90;;;;;;6162797;23;20020;-85
2022/02/23 00:22:37;;;;;;;45.42;4.80;;;5.50;99.90;;;;;;6187459;23;20017;-85
2022/02/23 00:25:03;;;;;;;32.55;4.43;;;6.20;99.90;;;;;;6170230;23;20811;-85
2022/02/23 00:27:29;;;;;;;39.00;4.78;;;5.40;99.90;;;;;;6187658;23;20016;-85
2022/02/23 00:29:55;;;;;;;30.13;4.90;;;6.00;99.90;;;;;;6185107;23;20013;-85
2022/02/23 00:32:21;;;;;;;41.80;4.68;;;5.70;99.90;;;;;;6160119;23;20468;-85
2022/02/23 00:34:47;;;;;;;39.92;5.00;;;6.50;99.90;;;;;;6160440;23;20548;-85
2022/02/23 00:37:13;;;;;;;31.05;3.72;;;6.50;99.90;;;;;;6185036;23;20481;-85
2022/02/23 00:39:39;;;;;;;29.67;3.63;;;6.20;99.90;;;;;;6183579;23;20059;-85
2022/02/23 00:42:05;;;;;;;34.08;4.18;;;5.40;99.90;;;;;;6160592;23;20091;-85
2022/02/23 00:44:31;;;;;;;34.33;4.03;;;5.30;99.90;;;;;;6159473;23;20023;-85
2022/02/23 00:46:58;;;;;;;33.75;3.92;;;5.80;99.90;;;;;;6186239;23;20009;-85
2022/02/23 00:49:23;;;;;;;49.17;5.00;;;6.40;99.90;;;;;;6159750;23;20024;-86
2022/02/23 00:51:49;;;;;;;38.10;4.82;;;5.70;99.90;;;;;;6160757;23;20043;-85
2022/02/23 00:54:16;;;;;;;35.95;4.43;;;5.70;99.90;;;;;;6185514;23;20110;-85
2022/02/23 00:56:42;;;;;;;37.17;4.93;;;5.50;99.90;;;;;;6160457;23;20464;-85
2022/02/23 00:59:07;;;;;;;34.50;5.22;;;5.70;99.90;;;;;;6211908;23;20024;-86
2022/02/23 01:01:33;;;;;;;30.48;4.15;;;5.30;99.90;;;;;;6212528;23;20027;-85
2022/02/23 01:03:59;;;;;;;38.70;5.55;;;5.30;99.90;;;;;;6185214;23;20090;-86
2022/02/23 01:06:24;;;;;;;34.00;4.97;;;6.10;99.90;;;;;;6185709;23;20020;-84
2022/02/23 01:08:50;;;;;;;35.70;4.15;;;5.30;99.90;;;;;;6186517;23;20106;-85
2022/02/23 01:11:19;;;;;;;23.38;3.53;;;6.30;99.90;;;;;;6185182;23;20019;-85
2022/02/23 01:13:46;;;;;;;41.53;4.82;;;5.90;99.90;;;;;;6185642;23;20019;-84
2022/02/23 01:16:12;;;;;;;36.38;4.63;;;5.40;99.90;;;;;;6213238;23;20012;-84
2022/02/23 01:18:38;;;;;;;33.25;3.88;;;5.80;99.90;;;;;;6184867;23;20027;-84
2022/02/23 01:21:04;;;;;;;30.15;3.97;;;6.20;99.90;;;;;;6161060;23;20016;-84
2022/02/23 01:23:30;;;;;;;31.48;3.88;;;5.20;99.90;;;;;;6213436;23;20009;-85
2022/02/23 01:25:56;;;;;;;33.55;4.40;;;6.30;99.90;;;;;;6185058;23;20092;-85
2022/02/23 01:28:21;;;;;;;34.70;4.30;;;5.20;99.90;;;;;;6161204;23;20020;-84
2022/02/23 01:30:47;;;;;;;30.77;4.38;;;5.10;99.90;;;;;;6160520;23;20099;-85
2022/02/23 01:33:14;;;;;;;40.00;4.57;;;5.10;99.90;;;;;;6161138;23;20046;-84
2022/02/23 01:35:40;;;;;;;35.55;4.43;;;5.10;99.90;;;;;;6161147;23;20020;-84
2022/02/23 01:38:06;;;;;;;35.83;3.78;;;5.50;99.90;;;;;;6160278;23;20099;-84
2022/02/23 01:40:33;;;;;;;35.30;4.22;;;5.70;99.90;;;;;;6162288;23;20012;-85
2022/02/23 01:42:59;;;;;;;32.55;4.53;;;5.20;99.90;;;;;;6161952;23;20092;-85
2022/02/23 01:45:24;;;;;;;25.15;3.10;;;6.00;99.90;;;;;;6214145;23;20051;-85
2022/02/23 01:47:50;;;;;;;37.08;4.30;;;6.20;99.90;;;;;;6187776;23;20012;-85
2022/02/23 01:50:16;;;;;;;38.35;4.65;;;6.20;99.90;;;;;;6161829;23;20360;-85
2022/02/23 01:52:43;;;;;;;38.38;4.90;;;5.20;99.90;;;;;;6187698;23;20455;-85
2022/02/23 01:55:09;;;;;;;36.60;4.93;;;5.30;99.90;;;;;;6161349;23;20393;-85
2022/02/23 01:57:35;;;;;;;25.63;3.67;;;5.40;99.90;;;;;;6187340;23;20445;-85
2022/02/23 02:00:00;;;;;;;37.80;3.72;;;6.40;99.90;;;;;;6163150;23;20063;-85
2022/02/23 02:02:26;;;;;;;43.65;5.40;;;6.20;99.90;;;;;;6188232;23;20027;-85
2022/02/23 02:04:53;;;;;;;27.05;4.32;;;5.50;99.90;;;;;;6163378;23;20090;-85
2022/02/23 02:07:18;;;;;;;36.50;4.40;;;5.20;99.90;;;;;;6185822;23;20441;-86
2022/02/23 02:09:44;;;;;;;29.00;3.63;;;6.40;99.90;;;;;;6185793;23;20051;-85
2022/02/23 02:12:10;;;;;;;43.25;4.25;;;5.80;99.90;;;;;;6160627;23;20019;-86
2022/02/23 02:14:36;;;;;;;32.67;4.30;;;5.30;99.90;;;;;;6161994;23;20063;-86
2022/02/23 02:17:02;;;;;;;32.33;3.63;;;6.20;99.90;;;;;;6161533;23;20091;-86
2022/02/23 02:19:28;;;;;;;42.63;4.32;;;5.10;99.90;;;;;;6186079;23;20044;-85
2022/02/23 02:22:02;;;;;;;36.80;4.85;;;5.70;99.90;;;;;;6162269;23;20008;-84
2022/02/23 02:24:29;;;;;;;35.28;4.18;;;5.20;99.90;;;;;;6185848;23;20013;-85
2022/02/23 02:26:56;;;;;;;31.95;4.50;;;6.30;99.90;;;;;;6185470;23;20380;-85
2022/02/23 02:29:22;;;;;;;31.20;3.63;;;6.20;99.90;;;;;;6160857;23;20096;-85
2022/02/23 02:31:48;;;;;;;30.02;4.32;;;6.30;99.90;;;;;;6186499;23;20401;-85
2022/02/23 02:34:15;;;;;;;34.25;4.15;;;6.10;99.90;;;;;;6160930;23;20445;-84
2022/02/23 02:36:42;;;;;;;34.78;3.90;;;6.20;99.90;;;;;;6212956;23;20013;-85
2022/02/23 02:39:08;;;;;;;34.97;4.22;;;5.10;99.90;;;;;;6160770;23;20044;-85
2022/02/23 02:41:35;;;;;;;40.90;5.50;;;5.00;99.90;;;;;;6185995;23;20019;-85
2022/02/23 02:44:02;;;;;;;38.50;4.53;;;5.00;99.90;;;;;;6212674;23;20012;-85
2022/02/23 02:46:28;;;;;;;35.70;3.95;;;5.00;99.90;;;;;;6186238;23;20016;-85
2022/02/23 02:48:53;;;;;;;30.10;3.80;;;4.90;99.90;;;;;;6185545;23;20016;-85
2022/02/23 02:51:19;;;;;;;35.00;3.97;;;5.00;99.90;;;;;;6160839;23;20056;-85
2022/02/23 02:53:45;;;;;;;34.47;4.60;;;5.10;99.90;;;;;;6185973;23;20478;-85
2022/02/23 02:56:11;;;;;;;38.95;3.97;;;6.10;99.90;;;;;;6185138;23;20013;-85
2022/02/23 02:58:37;;;;;;;36.33;4.95;;;5.60;99.90;;;;;;6160398;23;20440;-85
2022/02/23 03:01:04;;;;;;;40.85;4.53;;;5.00;99.90;;;;;;6162509;23;20103;-85
2022/02/23 03:03:30;;;;;;;39.70;4.38;;;5.00;99.90;;;;;;6186797;23;20421;-85
2022/02/23 03:05:56;;;;;;;29.67;4.53;;;4.90;99.90;;;;;;6160749;23;20024;-85
2022/02/23 03:08:21;;;;;;;25.58;3.05;;;5.10;99.90;;;;;;6161047;23;20351;-85
2022/02/23 03:10:47;;;;;;;32.08;3.90;;;5.20;99.90;;;;;;6184633;23;20380;-85
2022/02/23 03:13:13;;;;;;;46.65;4.97;;;5.00;99.90;;;;;;6186299;23;20068;-85
2022/02/23 03:15:39;;;;;;;42.38;4.55;;;5.10;99.90;;;;;;6185845;23;20016;-85
2022/02/23 03:18:05;;;;;;;39.83;4.50;;;5.00;99.90;;;;;;6185527;23;20017;-85
2022/02/23 03:20:33;;;;;;;38.03;4.55;;;5.50;99.90;;;;;;6186618;23;20360;-85
2022/02/23 03:22:59;;;;;;;37.60;4.95;;;6.00;99.90;;;;;;6161332;23;20016;-85
2022/02/23 03:25:25;;;;;;;27.38;3.95;;;5.20;99.90;;;;;;6212230;23;20013;-85
2022/02/23 03:27:51;;;;;;;54.25;5.57;;;5.20;99.90;;;;;;6185331;23;20027;-85
2022/02/23 03:30:17;;;;;;;35.75;3.63;;;5.50;99.90;;;;;;6186150;23;20016;-85
2022/02/23 03:32:42;;;;;;;33.80;3.55;;;5.80;99.90;;;;;;6161683;23;20028;-85
2022/02/23 03:35:09;;;;;;;39.45;4.93;;;5.50;99.90;;;;;;6186347;23;20052;-85
2022/02/23 03:37:35;;;;;;;33.33;3.67;;;5.70;99.90;;;;;;6161793;23;20024;-85
2022/02/23 03:40:01;;;;;;;28.35;4.10;;;5.20;99.90;;;;;;6162040;23;20082;-85
2022/02/23 03:42:27;;;;;;;48.67;5.30;;;5.20;99.90;;;;;;6161042;23;20044;-85
2022/02/23 03:44:52;;;;;;;42.08;4.63;;;6.10;99.90;;;;;;6212305;23;20016;-85
2022/02/23 03:47:18;;;;;;;34.38;4.75;;;6.40;99.90;;;;;;6185283;23;20009;-85
2022/02/23 03:49:44;;;;;;;34.92;4.25;;;5.20;99.90;;;;;;6185642;23;20020;-85
2022/02/23 03:52:10;;;;;;;28.42;3.88;;;6.30;99.90;;;;;;6161072;23;20020;-85
2022/02/23 03:54:35;;;;;;;36.22;4.22;;;6.00;99.90;;;;;;6161241;23;20017;-85
2022/02/23 03:57:01;;;;;;;30.63;4.38;;;5.00;99.90;;;;;;6160112;23;20016;-85
2022/02/23 03:59:27;;;;;;;38.08;4.45;;;5.00;99.90;;;;;;6160430;23;20432;-85
2022/02/23 04:01:53;;;;;;;41.67;4.95;;;5.50;99.90;;;;;;6161807;23;20102;-85
2022/02/23 04:04:19;;;;;;;36.88;4.53;;;5.80;99.90;;;;;;6162715;23;20020;-85
2022/02/23 04:06:46;;;;;;;39.05;4.35;;;5.90;99.90;;;;;;6162854;23;20009;-85
2022/02/23 04:09:12;;;;;;;35.85;4.07;;;5.10;99.90;;;;;;6162111;23;20036;-85
2022/02/23 04:11:39;;;;;;;39.03;5.10;;;5.50;99.90;;;;;;6213606;23;20400;-85
2022/02/23 04:14:05;;;;;;;46.47;4.75;;;5.20;99.90;;;;;;6162390;23;20031;-85
2022/02/23 04:16:32;;;;;;;47.00;5.25;;;4.90;99.90;;;;;;6162450;23;20348;-85
2022/02/23 04:18:57;;;;;;;32.17;4.03;;;5.80;99.90;;;;;;6186826;23;20088;-85
2022/02/23 04:21:23;;;;;;;36.92;4.47;;;4.80;99.90;;;;;;6163018;23;20043;-85
2022/02/23 04:23:49;;;;;;;39.33;5.13;;;5.70;99.90;;;;;;6187277;23;20040;-84
2022/02/23 04:26:16;;;;;;;27.50;3.85;;;5.20;99.90;;;;;;6186331;23;20092;-85
2022/02/23 04:28:43;;;;;;;38.22;4.65;;;4.70;99.90;;;;;;6188044;23;20012;-85
2022/02/23 04:31:09;;;;;;;32.55;4.65;;;5.30;99.90;;;;;;6187634;23;20055;-84
2022/02/23 04:33:37;;;;;;;36.20;4.22;;;5.60;99.90;;;;;;6163308;23;20017;-85
2022/02/23 04:36:08;;;;;;;33.63;4.22;;;4.50;99.90;;;;;;6188172;23;20024;-85
2022/02/23 04:38:37;;;;;;;35.15;4.68;;;5.50;99.90;;;;;;6221774;23;20013;-85
2022/02/23 04:41:03;;;;;;;27.85;3.97;;;4.40;99.90;;;;;;6162516;23;20016;-85
2022/02/23 04:43:33;;;;;;;40.13;4.68;;;4.90;99.90;;;;;;6163691;23;20079;-84
2022/02/23 04:46:00;;;;;;;31.70;4.50;;;4.40;99.90;;;;;;6162837;23;20432;-85
2022/02/23 04:48:26;;;;;;;37.58;4.43;;;5.20;99.90;;;;;;6162403;23;20459;-85
2022/02/23 04:50:52;;;;;;;33.40;4.43;;;4.90;99.90;;;;;;6162238;23;20021;-85
2022/02/23 04:53:17;;;;;;;37.55;4.15;;;4.70;99.90;;;;;;6188246;23;20020;-85
2022/02/23 04:55:43;;;;;;;30.55;4.18;;;5.20;99.90;;;;;;6188366;23;20142;-86
2022/02/23 04:58:08;;;;;;;32.90;4.82;;;4.80;99.90;;;;;;6163481;23;20067;-85
2022/02/23 05:00:41;;;;;;;36.38;4.32;;;5.20;99.90;;;;;;6222381;23;20047;-85
2022/02/23 05:03:07;;;;;;;30.90;4.45;;;4.20;99.90;;;;;;6162593;23;20078;-85
2022/02/23 05:05:33;;;;;;;33.65;4.15;;;4.40;99.90;;;;;;6162669;23;20095;-85
2022/02/23 05:07:58;;;;;;;36.85;4.28;;;4.20;99.90;;;;;;6162791;23;20107;-85
2022/02/23 05:10:25;;;;;;;44.88;5.13;;;4.10;99.90;;;;;;6187959;23;20021;-85
2022/02/23 05:12:50;;;;;;;30.55;4.30;;;4.10;99.90;;;;;;6162342;23;20023;-85
2022/02/23 05:15:16;;;;;;;41.63;4.75;;;4.20;99.90;;;;;;6214367;23;20083;-86
2022/02/23 05:17:42;;;;;;;38.83;3.78;;;4.20;99.90;;;;;;6186593;23;20027;-85
2022/02/23 05:20:08;;;;;;;34.95;4.45;;;4.30;99.90;;;;;;6162001;23;20426;-85
2022/02/23 05:22:34;;;;;;;41.60;4.57;;;4.30;99.90;;;;;;6162354;23;20012;-85
2022/02/23 05:25:00;;;;;;;35.53;4.15;;;4.30;99.90;;;;;;6185639;23;20131;-85
2022/02/23 05:27:26;;;;;;;32.47;4.28;;;4.20;99.90;;;;;;6186040;23;20043;-85
2022/02/23 05:29:51;;;;;;;39.88;4.47;;;4.10;99.90;;;;;;6186600;23;20024;-85
2022/02/23 05:32:18;;;;;;;41.15;4.47;;;5.30;99.90;;;;;;6161688;23;20016;-85
2022/02/23 05:34:44;;;;;;;44.25;4.10;;;4.10;99.90;;;;;;6161547;23;20087;-85
2022/02/23 05:37:11;;;;;;;30.00;4.43;;;4.20;99.90;;;;;;6186701;23;20115;-85
2022/02/23 05:39:37;;;;;;;44.38;4.95;;;4.10;99.90;;;;;;6185680;23;20055;-85
2022/02/23 05:42:03;;;;;;;45.97;4.95;;;4.10;99.90;;;;;;6161332;23;20059;-85
2022/02/23 05:44:28;;;;;;;35.50;4.30;;;4.10;99.90;;;;;;6186287;23;20345;-85
2022/02/23 05:46:54;;;;;;;36.85;4.35;;;5.10;99.90;;;;;;6161309;23;20009;-85
2022/02/23 05:49:20;;;;;;;39.83;4.28;;;4.40;99.90;;;;;;6186037;23;20112;-85
2022/02/23 05:51:48;;;;;;;43.35;4.18;;;4.40;99.90;;;;;;6186244;23;20126;-85
2022/02/23 05:54:16;;;;;;;34.33;4.30;;;4.10;99.90;;;;;;6160847;23;20341;-85
2022/02/23 05:56:43;;;;;;;40.75;4.38;;;4.10;99.90;;;;;;6185984;23;20436;-85
2022/02/23 05:59:09;;;;;;;38.90;3.80;;;4.10;99.90;;;;;;6186061;23;20017;-85
2022/02/23 06:01:36;;;;;;;28.23;3.47;;;5.20;99.90;;;;;;6185785;23;20035;-85
2022/02/23 06:04:02;;;;;;;36.70;4.45;;;4.20;99.90;;;;;;6186534;23;20039;-85
2022/02/23 06:06:28;;;;;;;37.28;3.83;;;4.00;99.90;;;;;;6160646;23;20406;-85
2022/02/23 06:08:54;;;;;;;24.38;3.85;;;4.00;99.90;;;;;;6186578;23;20024;-85
2022/02/23 06:11:19;;;;;;;39.17;4.07;;;4.20;99.90;;;;;;6160055;23;20013;-85
2022/02/23 06:13:51;;;;;;;35.95;3.92;;;4.20;99.90;;;;;;6161755;23;20013;-85
2022/02/23 06:16:25;;;;;;;35.30;3.85;;;4.10;99.90;;;;;;6161147;23;20021;-85
2022/02/23 06:18:51;;;;;;;45.97;5.05;;;4.20;99.90;;;;;;6161112;23;20020;-86
2022/02/23 06:21:26;;;;;;;44.25;4.22;;;4.90;99.90;;;;;;6161382;23;20019;-83
2022/02/23 06:23:52;;;;;;;37.33;4.20;;;4.90;99.90;;;;;;6161594;23;20075;-86
2022/02/23 06:26:19;;;;;;;29.92;4.50;;;4.00;99.90;;;;;;6184747;23;20409;-86
2022/02/23 06:28:45;;;;;;;42.65;4.50;;;4.30;99.90;;;;;;6161105;23;20070;-86
2022/02/23 06:31:11;;;;;;;28.13;3.65;;;4.30;99.90;;;;;;6185618;23;20027;-86
2022/02/23 06:33:42;;;;;;;35.55;3.90;;;4.20;99.90;;;;;;6160918;23;20052;-86
2022/02/23 06:36:08;;;;;;;38.65;4.60;;;5.10;99.90;;;;;;6161793;23;20058;-86
2022/02/23 06:38:40;;;;;;;31.17;4.00;;;5.10;99.90;;;;;;6160804;23;20016;-86
2022/02/23 06:41:09;;;;;;;29.35;4.50;;;4.70;99.90;;;;;;6160826;23;20019;-86
2022/02/23 06:43:35;;;;;;;35.78;4.82;;;4.00;99.90;;;;;;6161728;23;20433;-86
2022/02/23 06:46:02;;;;;;;31.55;4.25;;;4.50;99.90;;;;;;6162367;23;20024;-86
2022/02/23 06:48:28;;;;;;;34.25;4.47;;;4.10;99.90;;;;;;6186942;23;20013;-86
2022/02/23 06:50:54;;;;;;;32.00;4.47;;;4.90;99.90;;;;;;6161508;23;20036;-86
2022/02/23 06:53:21;;;;;;;37.38;4.85;;;4.80;99.90;;;;;;6185921;23;20152;-86
2022/02/23 06:55:52;;;;;;;39.70;4.00;;;4.70;99.90;;;;;;6159929;23;20047;-85
2022/02/23 06:58:21;;;;;;;23.92;3.60;;;3.60;99.90;;;;;;6161718;23;20083;-81
2022/02/23 07:01:33;;;;;;;37.80;4.20;;;5.10;99.90;;;;;;6213014;23;20012;-89
2022/02/23 07:03:59;;;;;;;41.00;4.68;;;3.80;99.90;;;;;;6065484;23;20066;-85
2022/02/23 07:06:24;;;;;;;33.10;3.83;;;4.00;99.90;;;;;;6042058;23;20395;-86
2022/02/23 07:08:50;;;;;;;25.23;4.22;;;5.30;99.90;;;;;;6042589;23;20022;-86
2022/02/23 07:11:18;;;;;;;29.38;4.40;;;5.20;99.90;;;;;;6041902;23;20032;-86
2022/02/23 07:13:44;;;;;;;36.33;4.85;;;5.40;99.90;;;;;;6042751;23;20022;-87
2022/02/23 07:16:15;;;;;;;33.38;4.07;;;5.20;99.90;;;;;;6042749;23;20029;-87
2022/02/23 07:18:41;;;;;;;38.45;4.68;;;4.90;99.90;;;;;;6042493;23;20026;-87
2022/02/23 07:21:07;;;;;;;31.45;3.95;;;4.10;99.90;;;;;;6042788;23;20159;-87
2022/02/23 07:23:32;;;;;;;35.40;4.30;;;5.20;99.90;;;;;;6043160;23;20475;-88
2022/02/23 07:25:58;;;;;;;36.85;4.93;;;5.00;99.90;;;;;;6041926;23;20193;-85
2022/02/23 07:28:24;;;;;;;29.77;4.03;;;4.10;99.90;;;;;;6043574;23;20102;-85
2022/02/23 07:30:51;;;;;;;28.73;4.00;;;4.20;99.90;;;;;;6042970;23;20030;-85
2022/02/23 07:33:18;;;;;;;26.98;3.92;;;5.20;99.90;;;;;;6041078;23;20428;-84
2022/02/23 07:35:45;;;;;;;27.35;5.22;;;5.10;99.90;;;;;;6042409;23;20019;-86
2022/02/23 07:38:11;;;;;;;37.40;5.57;;;4.20;99.90;;;;;;6044217;23;20053;-85
2022/02/23 07:40:37;;;;;;;29.63;4.63;;;4.80;99.90;;;;;;6157087;23;20336;-86
2022/02/23 07:43:04;;;;;;;28.15;4.63;;;5.30;99.90;;;;;;6162037;23;20104;-85
2022/02/23 07:45:30;;;;;;;27.85;4.35;;;4.70;99.90;;;;;;6160709;23;20016;-86
2022/02/23 07:47:56;;;;;;;31.48;3.85;;;4.40;99.90;;;;;;6162808;23;20043;-84
2022/02/23 07:50:21;;;;;;;28.20;3.80;;;4.40;99.90;;;;;;6190214;23;20448;-84
2022/02/23 07:52:50;;;;;;;28.65;3.75;;;4.90;99.90;;;;;;6162501;23;20020;-85
2022/02/23 07:55:24;;;;;;;35.47;3.90;;;4.60;99.90;;;;;;6161587;23;20031;-84
2022/02/23 07:57:50;;;;;;;34.03;4.25;;;4.60;99.90;;;;;;6160763;23;20024;-84
2022/02/23 08:00:18;;;;;;;34.00;3.85;;;5.50;99.90;;;;;;6161311;23;20071;-85
2022/02/23 08:02:43;;;;;;;27.38;3.70;;;4.70;99.90;;;;;;6161496;23;20013;-84
2022/02/23 08:05:09;;;;;;;30.70;4.63;;;4.90;99.90;;;;;;6162753;23;20317;-86
2022/02/23 08:07:35;;;;;;;25.77;3.63;;;5.80;99.90;;;;;;6161812;23;20013;-87
2022/02/23 08:10:03;;;;;;;29.48;4.38;;;5.70;99.90;;;;;;6163260;23;20035;-87
2022/02/23 08:21:39;;;;;;;33.53;4.53;;;6.30;99.90;;;;;;6186747;23;20707;-87
2022/02/23 08:24:05;;;;;;;26.00;3.47;;;5.10;99.90;;;;;;6161921;23;20092;-85
2022/02/23 08:26:31;;;;;;;31.88;3.42;;;5.20;99.90;;;;;;6163266;23;20012;-89
2022/02/23 08:28:57;;;;;;;22.70;3.42;;;5.20;99.90;;;;;;6188786;23;20012;-83
2022/02/23 08:31:23;;;;;;;41.47;4.57;;;5.30;99.90;;;;;;6185933;23;20031;-86
2022/02/23 08:33:48;;;;;;;29.52;3.65;;;5.40;99.90;;;;;;6187814;23;20078;-86
2022/02/23 08:36:14;;;;;;;32.30;3.70;;;6.30;99.90;;;;;;6163051;23;20384;-85
2022/02/23 08:38:41;;;;;;;24.40;3.30;;;5.50;99.90;;;;;;6185079;23;20016;-86
2022/02/23 08:41:07;;;;;;;33.13;4.22;;;6.40;99.90;;;;;;6161411;23;20013;-85
2022/02/23 08:43:33;;;;;;;30.90;4.05;;;5.60;99.90;;;;;;6162274;23;20048;-86
2022/02/23 08:45:59;;;;;;;33.40;4.40;;;5.60;99.90;;;;;;6163132;23;20012;-86
2022/02/23 08:48:26;;;;;;;22.75;3.47;;;6.70;99.90;;;;;;6162392;23;20017;-86
2022/02/23 08:51:23;;;;;;;27.33;4.43;;;5.70;99.90;;;;;;6162379;23;20105;-86
2022/02/23 08:53:48;;;;;;;33.30;3.95;;;5.80;99.90;;;;;;6188586;23;20017;-86
2022/02/23 08:56:14;;;;;;;30.27;3.90;;;5.80;99.90;;;;;;6169835;23;20035;-86
2022/02/23 08:58:40;;;;;;;27.63;3.67;;;6.10;99.90;;;;;;6163207;23;20436;-86
2022/02/23 09:01:05;;;;;;;29.58;4.20;;;5.90;99.90;;;;;;6161892;23;20039;-86
2022/02/23 09:03:31;;;;;;;32.38;4.00;;;5.90;99.90;;;;;;6162877;23;20040;-86
2022/02/23 09:05:57;;;;;;;32.42;3.75;;;6.30;99.90;;;;;;6160942;23;20040;-86
2022/02/23 09:08:22;;;;;;;29.60;3.72;;;6.20;99.90;;;;;;6163243;23;20027;-86
2022/02/23 09:10:48;;;;;;;21.08;3.33;;;6.10;99.90;;;;;;6161246;23;20035;-86
2022/02/23 09:13:14;;;;;;;29.55;4.57;;;6.20;99.90;;;;;;6189818;23;20071;-86
2022/02/23 09:15:39;;;;;;;32.50;4.25;;;6.40;99.90;;;;;;6165665;23;20039;-86
2022/02/23 09:18:05;;;;;;;30.00;3.80;;;6.90;99.90;;;;;;6213747;23;20027;-84
2022/02/23 09:20:46;;;;;;;37.58;4.07;;;6.90;99.90;;;;;;6163914;23;20096;-87
2022/02/23 09:23:13;;;;;;;24.40;3.50;;;6.40;99.90;;;;;;6187930;23;20012;-84
2022/02/23 09:25:38;;;;;;;20.13;3.30;;;6.50;99.90;;;;;;6161493;23;20023;-86
2022/02/23 09:28:04;;;;;;;33.75;4.53;;;6.50;99.90;;;;;;6213898;23;20012;-83
2022/02/23 09:30:30;;;;;;;27.60;4.45;;;7.10;99.90;;;;;;6162608;23;20020;-82
2022/02/23 09:32:56;;;;;;;32.10;4.00;;;7.60;99.90;;;;;;6162133;23;20317;-83
2022/02/23 09:35:22;;;;;;;25.85;3.92;;;7.10;99.90;;;;;;6161742;23;20020;-85
2022/02/23 09:37:48;;;;;;;30.77;4.55;;;6.70;99.90;;;;;;6161415;23;20016;-83
2022/02/23 09:40:17;;;;;;;28.55;4.03;;;7.60;99.90;;;;;;6160949;23;20063;-84
2022/02/23 09:42:44;;;;;;;17.73;3.35;;;7.70;99.90;;;;;;6163935;23;20044;-85
2022/02/23 09:45:12;;;;;;;24.90;4.25;;;7.70;99.90;;;;;;6187121;23;20012;-86
2022/02/23 09:47:38;;;;;;;28.27;4.22;;;7.50;99.90;;;;;;6185388;23;20048;-87
2022/02/23 09:50:10;;;;;;;21.90;3.42;;;7.10;99.90;;;;;;6162268;23;20159;-86
2022/02/23 09:53:01;;;;;;;21.02;3.50;;;7.10;99.90;;;;;;6188417;23;20013;-84
2022/02/23 09:55:36;;;;;;;30.10;4.07;;;6.80;99.90;;;;;;6163189;23;20122;-88
2022/02/23 09:58:05;;;;;;;30.65;4.00;;;8.10;99.90;;;;;;6185340;23;20107;-86
2022/02/23 10:00:32;;;;;;;28.58;4.43;;;7.30;99.90;;;;;;6160088;23;20087;-87
2022/02/23 10:02:59;;;;;;;28.33;4.55;;;7.80;99.90;;;;;;6162818;23;20013;-86
2022/02/23 10:06:21;;;;;;;28.52;3.80;;;7.80;99.90;;;;;;6161753;23;20013;-87
2022/02/23 10:08:53;;;;;;;16.80;3.20;;;7.40;99.90;;;;;;6067707;23;20093;-86
2022/02/23 10:11:19;;;;;;;26.17;3.55;;;8.40;99.90;;;;;;6067011;23;20094;-86
2022/02/23 10:13:49;;;;;;;21.02;3.53;;;7.40;99.90;;;;;;6067973;23;20042;-85
2022/02/23 10:16:15;;;;;;;21.00;3.28;;;7.90;99.90;;;;;;6067616;23;20101;-88
2022/02/23 10:18:40;;;;;;;29.15;3.60;;;7.70;99.90;;;;;;6043971;23;20462;-87
2022/02/23 10:21:07;;;;;;;15.82;2.88;;;7.70;99.90;;;;;;6043654;23;20053;-86
2022/02/23 10:23:33;;;;;;;16.88;2.72;;;7.80;99.90;;;;;;6043623;23;20362;-85
2022/02/23 10:26:05;;;;;;;15.90;3.35;;;8.60;99.90;;;;;;6067950;23;20022;-86
2022/02/23 10:28:35;;;;;;;20.80;3.40;;;8.60;99.90;;;;;;6047889;23;20473;-86
2022/02/23 10:31:03;;;;;;;19.48;3.15;;;9.00;99.90;;;;;;6067552;23;20014;-87
2022/02/23 10:33:36;;;;;;;16.63;2.63;;;8.20;99.90;;;;;;6044005;23;20170;-87
2022/02/23 10:36:05;;;;;;;21.15;2.80;;;8.90;99.90;;;;;;6043518;23;20025;-83
2022/02/23 10:38:50;;;;;;;20.75;3.40;;;8.30;99.90;;;;;;6111610;23;20016;-86
2022/02/23 10:41:30;;;;;;;20.20;3.50;;;8.50;99.90;;;;;;6161448;23;20009;-86
2022/02/23 10:43:56;;;;;;;13.30;2.75;;;8.20;99.90;;;;;;6161704;23;20008;-86
2022/02/23 10:46:24;;;;;;;21.73;3.30;;;9.00;99.90;;;;;;6162443;23;20024;-86
2022/02/23 10:49:01;;;;;;;21.45;3.95;;;9.60;99.90;;;;;;6163029;23;20062;-86
2022/02/23 10:51:33;;;;;;;17.80;3.08;;;8.80;99.90;;;;;;6160255;23;20013;-86
2022/02/23 10:54:04;;;;;;;13.98;2.95;;;8.80;99.90;;;;;;6185699;23;20028;-84
2022/02/23 10:56:32;;;;;;;12.82;2.95;;;9.00;99.90;;;;;;6160876;23;20507;-83
2022/02/23 10:59:19;;;;;;;19.50;2.95;;;9.00;99.90;;;;;;6161307;23;20361;-85
2022/02/23 11:01:54;;;;;;;14.32;2.95;;;9.10;99.90;;;;;;6160443;23;20013;-82
2022/02/23 11:04:22;;;;;;;17.83;2.55;;;9.10;99.90;;;;;;6185959;23;20017;-81
2022/02/23 11:06:51;;;;;;;14.45;3.08;;;9.20;99.90;;;;;;6186017;23;20103;-82
2022/02/23 11:09:17;;;;;;;14.30;2.40;;;9.30;99.90;;;;;;6185875;23;20573;-82
2022/02/23 11:11:47;;;;;;;14.45;2.95;;;9.30;99.90;;;;;;6187154;23;20024;-86
2022/02/23 11:14:15;;;;;;;16.75;2.50;;;9.50;99.90;;;;;;6189291;23;20255;-85
2022/02/23 11:16:41;;;;;;;11.38;1.98;;;10.40;99.90;;;;;;6163580;23;20019;-85
2022/02/23 11:19:07;;;;;;;11.35;2.33;;;9.70;99.90;;;;;;6163072;23;20016;-84
2022/02/23 11:21:37;;;;;;;12.73;2.00;;;9.60;99.90;;;;;;6163988;23;20013;-84
2022/02/23 11:24:09;;;;;;;10.05;2.30;;;9.70;99.90;;;;;;6186515;23;20016;-85
2022/02/23 11:26:36;;;;;;;13.90;2.55;;;9.60;99.90;;;;;;6163070;23;20017;-85
2022/02/23 11:29:49;;;;;;;16.08;1.90;;;10.20;99.90;;;;;;6187425;23;20016;-84
2022/02/23 11:32:15;;;;;;;14.18;2.15;;;9.70;99.90;;;;;;6068950;23;20022;-83
2022/02/23 11:34:40;;;;;;;10.93;2.20;;;10.10;99.90;;;;;;6067912;23;20523;-84
2022/02/23 11:37:11;;;;;;;13.02;2.72;;;10.00;99.90;;;;;;6044922;23;20050;-84
2022/02/23 11:39:40;;;;;;;14.10;2.45;;;9.90;99.90;;;;;;6044262;23;20522;-85
2022/02/23 11:42:19;;;;;;;14.40;2.15;;;10.00;99.90;;;;;;6068180;23;20443;-84
2022/02/23 11:44:49;;;;;;;15.40;2.63;;;10.00;99.90;;;;;;6045109;23;20014;-84
2022/02/23 11:47:18;;;;;;;11.35;2.28;;;10.20;99.90;;;;;;6067654;23;20384;-84
2022/02/23 11:49:56;;;;;;;11.32;2.42;;;10.10;99.90;;;;;;6044425;23;20022;-85
2022/02/23 11:52:24;;;;;;;14.75;2.65;;;10.10;99.90;;;;;;6044173;23;20118;-85
2022/02/23 11:55:05;;;;;;;14.63;2.35;;;10.50;99.90;;;;;;6068249;23;20018;-85
2022/02/23 11:57:51;;;;;;;10.98;2.58;;;10.00;99.90;;;;;;6044543;23;20021;-85
2022/02/23 12:00:20;;;;;;;14.40;2.42;;;10.20;99.90;;;;;;6045186;23;20022;-85
2022/02/23 12:02:58;;;;;;;9.30;2.05;;;11.10;99.90;;;;;;6092941;23;20088;-85
2022/02/23 12:05:41;;;;;;;15.13;2.63;;;10.40;99.90;;;;;;6045131;23;20022;-85
2022/02/23 12:08:32;;;;;;;15.55;2.80;;;10.50;99.90;;;;;;6052351;23;20018;-84
2022/02/23 12:10:58;;;;;;;13.90;2.30;;;10.50;99.90;;;;;;6210650;23;20380;-84
2022/02/23 12:13:37;;;;;;;14.98;3.17;;;10.40;99.90;;;;;;6187818;23;20428;-84
2022/02/23 12:16:26;;;;;;;10.18;2.20;;;10.40;99.90;;;;;;6187260;23;20017;-84
2022/02/23 12:19:03;;;;;;;18.13;2.90;;;10.40;99.90;;;;;;6215986;23;20020;-85
2022/02/23 12:21:42;;;;;;;16.50;2.92;;;10.30;99.90;;;;;;6164011;23;20048;-84
2022/02/23 12:24:14;;;;;;;13.02;2.63;;;10.50;99.90;;;;;;6162376;23;20013;-84
2022/02/23 12:26:39;;;;;;;14.18;2.92;;;10.40;99.90;;;;;;6161174;23;20371;-84
2022/02/23 12:29:09;;;;;;;20.60;3.00;;;10.30;99.90;;;;;;6186590;23;20326;-84
2022/02/23 12:31:39;;;;;;;12.57;2.83;;;10.40;99.90;;;;;;6162471;23;20023;-86
2022/02/23 12:34:23;;;;;;;12.38;2.40;;;10.20;99.90;;;;;;6162611;23;20495;-84
2022/02/23 12:36:54;;;;;;;13.75;2.38;;;10.40;99.90;;;;;;6163492;23;20017;-82
2022/02/23 12:39:23;;;;;;;15.70;2.75;;;10.30;99.90;;;;;;6185865;23;20025;-83
2022/02/23 12:41:56;;;;;;;16.83;2.97;;;11.10;99.90;;;;;;6185795;23;20099;-84
2022/02/23 12:44:31;;;;;;;18.13;2.72;;;10.50;99.90;;;;;;6162235;23;20020;-85
2022/02/23 12:47:00;;;;;;;15.90;3.25;;;10.80;99.90;;;;;;6161135;23;20013;-84
2022/02/23 12:49:26;;;;;;;11.65;2.50;;;10.50;99.90;;;;;;6160744;23;20401;-83
2022/02/23 12:51:53;;;;;;;10.90;2.58;;;10.40;99.90;;;;;;6186043;23;20051;-83
2022/02/23 12:54:22;;;;;;;14.40;2.08;;;10.50;99.90;;;;;;6160661;23;20020;-83
2022/02/23 12:56:50;;;;;;;16.20;2.42;;;10.20;99.90;;;;;;6186665;23;20415;-84
2022/02/23 12:59:22;;;;;;;12.32;2.58;;;10.40;99.90;;;;;;6161020;23;20021;-84